Flight Track Log - Related Links

Times and Time Zones

All times are in EDT time to prevent confusion due to time zone crossing. See the SKQ78 flight status page for this flight to view local times or setup timezone preferences in your user account.

Time Position Orientation Groundspeed Altitude Reporting Facility
EDT Latitude Longitude Course Direction KTS MPH feet Rate Location/Type
Wed 07:08:09 AM 38.3850 -81.6381 330° Northwest 166 191 2,900  Level Indianapolis Center
Wed 07:09:10 AM 38.4214 -81.6689 326° Northwest 158 182 4,800 1,770 Climbing Indianapolis Center
Wed 07:10:11 AM 38.4592 -81.7000 327° Northwest 160 184 6,500 1,623 Climbing Indianapolis Center
Wed 07:11:12 AM 38.4992 -81.7331 327° Northwest 169 194 8,100 1,623 Climbing Indianapolis Center
Wed 07:12:13 AM 38.5397 -81.7672 327° Northwest 172 198 9,800 1,561 Climbing Indianapolis Center
Wed 07:13:00 AM 38.6588 -81.8316 330° Northwest  Level FlightAware Approximate
Wed 07:13:15 AM 38.5831 -81.8019 328° Northwest 181 208 11,300  Level Indianapolis Center
Wed 07:14:16 AM 38.6294 -81.8406 327° Northwest 200 230 12,000 344 Climbing Indianapolis Center
Wed 07:15:17 AM 38.6861 -81.8878 327° Northwest 236 272 12,000  Level Indianapolis Center
Wed 07:16:18 AM 38.7472 -81.9381 327° Northwest 257 296 12,000  Level Indianapolis Center
Wed 07:17:19 AM 38.8078 -81.9889 327° Northwest 259 298 12,000  Level Indianapolis Center
Wed 07:18:20 AM 38.8692 -82.0403 327° Northwest 262 302 12,000  Level Indianapolis Center
Wed 07:19:21 AM 38.9453 -82.0969 330° Northwest 263 303 12,000  Level Indianapolis Center
Wed 07:20:22 AM 39.0167 -82.1272 342° North 270 311 12,000  Level Indianapolis Center
Wed 07:21:23 AM 39.0883 -82.1564 342° North 269 310 12,000 -49 Level Indianapolis Center
Wed 07:22:24 AM 39.1594 -82.1875 341° North 268 308 11,900 -439 Descending Indianapolis Center
Wed 07:23:26 AM 39.2342 -82.2186 342° North 281 323 11,100 -390 Descending Indianapolis Center
Wed 07:24:27 AM 39.3075 -82.2494 342° North 277 319 11,100  Level Indianapolis Center
Wed 07:25:28 AM 39.3786 -82.2794 342° North 267 307 11,100  Level Indianapolis Center
Wed 07:26:25 AM 39.4486 -82.3103 341° North 262 302 11,100 -148 Level Indianapolis Center
Wed 07:27:30 AM 39.5106 -82.3492 334° Northwest 267 307 10,800 -571 Descending Indianapolis Center
Wed 07:28:31 AM 39.5544 -82.4286 306° West 269 310 9,900 -976 Descending Indianapolis Center
Wed 07:29:33 AM 39.6047 -82.5194 306° West 265 305 8,800 -1,024 Descending Indianapolis Center
Wed 07:30:34 AM 39.6469 -82.5981 305° West 262 302 7,800 -984 Descending Indianapolis Center
Wed 07:31:35 AM 39.6881 -82.6753 305° West 260 299 6,800 -984 Descending Indianapolis Center
Wed 07:32:36 AM 39.7278 -82.7528 304° West 258 297 5,800 -976 Descending Indianapolis Center
Wed 07:33:38 AM 39.7689 -82.8303 305° West 259 298 4,800 -829 Descending Indianapolis Center
Wed 07:34:39 AM 39.8097 -82.9058 305° West 256 295 4,100 -344 Descending Indianapolis Center
Wed 07:35:40 AM 39.8492 -82.9775 306° West 247 284 4,100  Level Indianapolis Center
Wed 07:36:41 AM 39.8872 -83.0475 305° West 239 275 4,100 -508 Level Indianapolis Center
Wed 07:37:50 AM 39.9675 -83.0736 346° North 263 303 3,000 -1,024 Descending Indianapolis Center
Wed 07:38:44 AM 40.0194 -83.0861 350° North 246 283 2,000 -783 Descending Indianapolis Center
Wed 07:39:45 AM 40.0608 -83.1028 343° North 184 212 1,500 -393 Descending Indianapolis Center
Wed 07:40:46 AM 40.0867 -83.0711 43° Northeast 160 184 1,200 -295 Descending Indianapolis Center
Wed 07:42:00 AM 40.0798 -83.0732 193° South  Level Estimated

Login

Don't have an account? Register now (free) for customized features, flight alerts, and more!